Terminal Aerodrome Forecast
Issued by NWS Shreveport, LA

Home | Current Version | Previous Version | Text Only | Print | Product List | Glossary On
Versions: 1 2 3 4 5 6 7 8 9 10 11 12 13 14 15 16
673
FTUS44 KSHV 280528
TAFSHV
TAF
KSHV 280528Z 2806/2906 VRB03KT P6SM SCT050
     FM280900 VRB04KT P6SM BKN015
     FM281600 17007KT P6SM BKN030
     FM281900 16010KT P6SM SCT050=

USA.gov is the U.S. government's official web portal to all federal, state and local government web resources and services.